createdAt,value
2022-12-22T00:01:55.585Z,22.45
2022-12-22T00:04:41.992Z,23.83
2022-12-22T00:07:27.585Z,22.17
2022-12-22T00:10:13.373Z,24.33
2022-12-22T00:12:59.759Z,23.70
2022-12-22T00:15:46.850Z,23.38
2022-12-22T00:18:36.351Z,23.65
2022-12-22T00:21:22.131Z,23.80
2022-12-22T00:24:07.736Z,23.83
2022-12-22T00:26:54.820Z,23.13
2022-12-22T00:29:40.552Z,22.95
2022-12-22T00:32:32.331Z,22.98
2022-12-22T00:35:19.092Z,23.67
2022-12-22T00:38:04.773Z,22.48
2022-12-22T00:40:50.494Z,22.33
2022-12-22T00:43:36.157Z,22.10
2022-12-22T00:46:23.077Z,21.23
2022-12-22T00:49:09.891Z,22.92
2022-12-22T00:51:55.738Z,21.35
2022-12-22T00:54:42.098Z,22.23
2022-12-22T01:00:36.856Z,20.60
2022-12-22T01:03:23.241Z,20.13
2022-12-22T01:06:08.895Z,21.25
2022-12-22T01:08:55.124Z,19.75
2022-12-22T01:11:40.812Z,20.23
2022-12-22T01:14:33.146Z,20.40
2022-12-22T01:20:04.853Z,19.08
2022-12-22T01:22:51.174Z,19.85
2022-12-22T01:25:37.879Z,19.42
2022-12-22T01:28:24.139Z,19.05
2022-12-22T01:31:09.958Z,20.73
2022-12-22T01:33:55.601Z,20.20
2022-12-22T01:36:41.386Z,20.80
2022-12-22T01:39:27.258Z,21.50
2022-12-22T01:42:13.267Z,19.73
2022-12-22T01:44:58.878Z,19.75
2022-12-22T01:47:47.519Z,19.85
2022-12-22T01:50:39.802Z,20.33
2022-12-22T01:56:12.984Z,19.73
2022-12-22T01:59:05.356Z,18.92
2022-12-22T02:01:51.826Z,18.33
2022-12-22T02:04:40.692Z,19.17
2022-12-22T02:07:56.657Z,18.10
2022-12-22T02:11:02.889Z,19.00
2022-12-22T02:13:58.601Z,19.83
2022-12-22T02:16:58.483Z,18.42
2022-12-22T02:20:05.537Z,17.58
2022-12-22T02:23:05.185Z,18.27
2022-12-22T02:26:00.975Z,20.27
2022-12-22T02:28:47.443Z,20.02
2022-12-22T02:31:33.156Z,18.38
2022-12-22T02:34:18.838Z,19.70
2022-12-22T02:37:22.736Z,17.92
2022-12-22T02:40:32.305Z,17.98
2022-12-22T02:43:43.456Z,18.58
2022-12-22T02:46:49.497Z,17.83
2022-12-22T02:49:40.795Z,18.73
2022-12-22T02:52:41.346Z,17.92
2022-12-22T02:55:27.588Z,17.70
2022-12-22T02:58:13.153Z,17.55
2022-12-22T03:00:59.474Z,18.23
2022-12-22T03:03:45.336Z,17.90
2022-12-22T03:06:31.075Z,17.38
2022-12-22T03:09:16.715Z,17.02
2022-12-22T03:12:02.335Z,18.75
2022-12-22T03:14:48.044Z,17.98
2022-12-22T03:17:33.657Z,18.02
2022-12-22T03:20:19.433Z,17.02
2022-12-22T03:23:05.101Z,18.23
2022-12-22T03:25:50.784Z,18.83
2022-12-22T03:28:18.114Z,17.73
2022-12-22T03:30:45.550Z,18.75
2022-12-22T03:33:12.813Z,18.15
2022-12-22T03:35:40.047Z,17.02
2022-12-22T03:38:07.275Z,18.27
2022-12-22T03:40:34.579Z,17.40
2022-12-22T03:43:20.135Z,18.77
2022-12-22T03:46:05.790Z,17.20
2022-12-22T03:48:33.041Z,18.05
2022-12-22T03:51:00.243Z,18.10
2022-12-22T03:53:27.410Z,17.92
2022-12-22T03:55:54.714Z,17.88
2022-12-22T03:58:21.942Z,18.85
2022-12-22T04:00:49.211Z,18.70
2022-12-22T04:03:17.494Z,18.48
2022-12-22T04:05:45.824Z,17.65
2022-12-22T04:08:13.015Z,17.80
2022-12-22T04:10:58.595Z,18.73
2022-12-22T04:13:25.993Z,16.92
2022-12-22T04:15:53.177Z,16.45
2022-12-22T04:18:20.391Z,16.98
2022-12-22T04:20:49.136Z,17.00
2022-12-22T04:23:16.314Z,17.85
2022-12-22T04:25:43.690Z,17.50
2022-12-22T04:28:10.903Z,16.98
2022-12-22T04:30:38.111Z,15.52
2022-12-22T04:33:05.465Z,16.27
2022-12-22T04:35:32.731Z,17.20
2022-12-22T04:38:00.054Z,16.40
2022-12-22T04:40:27.435Z,17.17
2022-12-22T04:42:54.741Z,16.80
2022-12-22T04:45:21.886Z,16.92
2022-12-22T04:47:49.202Z,17.02
2022-12-22T04:50:16.618Z,16.63
2022-12-22T04:52:43.800Z,16.58
2022-12-22T04:55:11.263Z,17.00
2022-12-22T04:57:40.768Z,17.38
2022-12-22T05:00:09.450Z,14.95
2022-12-22T05:02:36.726Z,17.02
2022-12-22T05:05:04.170Z,15.82
2022-12-22T05:07:31.393Z,15.77
2022-12-22T05:09:58.925Z,15.32
2022-12-22T05:12:44.795Z,16.33
2022-12-22T05:15:12.041Z,16.83
2022-12-22T05:17:39.405Z,16.45
2022-12-22T05:20:07.379Z,16.13
2022-12-22T05:22:37.791Z,16.27
2022-12-22T05:25:05.665Z,15.40
2022-12-22T05:27:32.875Z,14.90
2022-12-22T05:30:00.186Z,14.82
2022-12-22T05:32:27.469Z,14.77
2022-12-22T05:34:54.723Z,14.45
2022-12-22T05:37:21.918Z,14.70
2022-12-22T05:39:49.180Z,13.88
2022-12-22T05:42:35.894Z,13.40
2022-12-22T05:45:12.516Z,14.02
2022-12-22T05:47:40.381Z,14.07
2022-12-22T05:50:09.471Z,12.65
2022-12-22T05:52:36.824Z,13.57
2022-12-22T05:55:04.866Z,12.77
2022-12-22T05:57:32.194Z,14.05
2022-12-22T05:59:59.462Z,13.25
2022-12-22T06:02:27.355Z,12.50
2022-12-22T06:04:54.666Z,11.93
2022-12-22T06:07:21.986Z,12.15
2022-12-22T06:09:49.218Z,12.07
2022-12-22T06:12:16.594Z,12.50
2022-12-22T06:14:43.987Z,12.00
2022-12-22T06:17:11.228Z,11.43
2022-12-22T06:19:38.651Z,11.35
2022-12-22T06:22:05.875Z,10.50
2022-12-22T06:24:33.062Z,10.75
2022-12-22T06:27:00.656Z,9.70
2022-12-22T06:29:28.032Z,11.15
2022-12-22T06:31:55.357Z,10.40
2022-12-22T06:34:24.043Z,11.40
2022-12-22T06:36:51.610Z,10.13
2022-12-22T06:39:19.146Z,10.60
2022-12-22T06:42:04.897Z,11.10
2022-12-22T06:44:32.186Z,10.70
2022-12-22T06:46:59.515Z,10.75
2022-12-22T06:49:26.929Z,10.43
2022-12-22T06:51:54.338Z,10.85
2022-12-22T06:54:26.115Z,11.30
2022-12-22T06:56:53.858Z,11.35
2022-12-22T06:59:21.257Z,10.63
2022-12-22T07:01:48.628Z,9.55
2022-12-22T07:04:20.867Z,10.13
2022-12-22T07:09:15.886Z,10.52
2022-12-22T07:11:43.327Z,11.15
2022-12-22T07:14:11.549Z,10.70
2022-12-22T07:16:38.902Z,11.13
2022-12-22T07:19:06.273Z,11.95
2022-12-22T07:21:33.635Z,10.77
2022-12-22T07:24:00.997Z,12.13
2022-12-22T07:26:28.310Z,11.65
2022-12-22T07:28:55.477Z,10.75
2022-12-22T07:31:22.774Z,11.27
2022-12-22T07:33:50.133Z,11.98
2022-12-22T07:36:19.879Z,11.35
2022-12-22T07:38:49.561Z,11.40
2022-12-22T07:41:38.190Z,11.27
2022-12-22T07:44:07.478Z,8.50
2022-12-22T07:46:37.246Z,10.70
2022-12-22T07:49:26.689Z,10.18
2022-12-22T07:51:56.933Z,11.50
2022-12-22T07:54:24.710Z,9.80
2022-12-22T07:56:52.627Z,9.27
2022-12-22T07:59:20.457Z,9.30
2022-12-22T08:01:47.763Z,8.35
2022-12-22T08:04:15.800Z,8.85
2022-12-22T08:06:43.127Z,9.10
2022-12-22T08:09:14.651Z,8.43
2022-12-22T08:11:41.975Z,8.63
2022-12-22T08:14:09.519Z,8.40
2022-12-22T08:16:36.857Z,8.23
2022-12-22T08:19:04.156Z,8.50
2022-12-22T08:21:31.441Z,8.07
2022-12-22T08:23:58.698Z,8.38
2022-12-22T08:26:32.596Z,7.75
2022-12-22T08:29:09.037Z,6.55
2022-12-22T08:31:36.542Z,6.32
2022-12-22T08:34:06.900Z,5.55
2022-12-22T08:36:38.289Z,5.13
2022-12-22T08:39:06.256Z,5.43
2022-12-22T08:41:50.020Z,5.13
2022-12-22T08:44:23.128Z,4.82
2022-12-22T08:46:51.638Z,4.57
2022-12-22T08:49:19.494Z,4.40
2022-12-22T08:51:47.337Z,4.45
2022-12-22T08:54:15.527Z,4.20
2022-12-22T08:56:43.936Z,3.80
2022-12-22T08:59:12.088Z,5.25
2022-12-22T09:01:44.497Z,3.70
2022-12-22T09:04:20.467Z,3.30
2022-12-22T09:06:48.069Z,3.22
2022-12-22T09:09:16.669Z,2.67
2022-12-22T09:11:44.129Z,2.55
2022-12-22T09:14:12.071Z,3.03
2022-12-22T09:16:40.579Z,3.55
2022-12-22T09:19:08.397Z,3.55
2022-12-22T09:21:36.354Z,2.55
2022-12-22T09:24:07.790Z,3.25
2022-12-22T09:26:35.390Z,3.50
2022-12-22T09:29:03.312Z,2.22
2022-12-22T09:31:30.916Z,2.42
2022-12-22T09:33:58.771Z,2.70
2022-12-22T09:36:28.373Z,1.95
2022-12-22T09:38:55.779Z,2.10
2022-12-22T09:41:25.663Z,1.98
2022-12-22T09:43:53.083Z,2.85
2022-12-22T09:46:31.655Z,2.55
2022-12-22T09:48:59.435Z,2.08
2022-12-22T09:51:27.719Z,2.38
2022-12-22T09:53:59.386Z,2.78
2022-12-22T09:56:28.981Z,2.15
2022-12-22T09:58:56.485Z,2.30
2022-12-22T10:01:42.367Z,2.35
2022-12-22T10:04:34.485Z,2.40
2022-12-22T10:07:16.799Z,2.40
2022-12-22T10:09:52.152Z,2.10
2022-12-22T10:12:23.131Z,2.28
2022-12-22T10:14:52.909Z,2.97
2022-12-22T10:17:29.180Z,6.60
2022-12-22T10:20:21.595Z,2.10
2022-12-22T10:23:00.993Z,2.33
2022-12-22T10:25:45.180Z,2.20
2022-12-22T10:28:22.220Z,3.00
2022-12-22T10:30:49.531Z,2.13
2022-12-22T10:33:19.029Z,2.00
2022-12-22T10:35:56.274Z,2.30
2022-12-22T10:38:37.405Z,2.15
2022-12-22T10:41:20.609Z,2.40
2022-12-22T10:44:05.335Z,2.20
2022-12-22T10:46:42.743Z,2.10
2022-12-22T10:52:23.813Z,2.03
2022-12-22T10:55:21.610Z,2.30
2022-12-22T10:57:50.104Z,2.17
2022-12-22T11:00:28.770Z,2.53
2022-12-22T11:03:00.094Z,2.35
2022-12-22T11:08:19.339Z,2.92
2022-12-22T11:10:52.709Z,2.30
2022-12-22T11:13:47.920Z,2.20
2022-12-22T11:16:53.226Z,2.17
2022-12-22T11:19:39.279Z,2.15
2022-12-22T11:22:06.792Z,2.17
2022-12-22T11:24:53.315Z,1.90
2022-12-22T11:27:29.608Z,3.45
2022-12-22T11:30:05.856Z,2.60
2022-12-22T11:33:02.849Z,2.15
2022-12-22T11:36:00.937Z,1.83
2022-12-22T11:38:50.285Z,2.03
2022-12-22T11:41:26.512Z,2.33
2022-12-22T11:44:11.603Z,2.10
2022-12-22T11:46:55.440Z,2.30
2022-12-22T11:51:01.669Z,2.20
2022-12-22T11:53:31.250Z,2.30
2022-12-22T11:56:20.311Z,1.77
2022-12-22T11:58:53.392Z,2.00
2022-12-22T12:01:35.852Z,1.50
2022-12-22T12:04:15.205Z,1.98
2022-12-22T12:06:48.277Z,1.80
2022-12-22T12:09:15.411Z,1.73
2022-12-22T12:12:04.228Z,1.63
2022-12-22T12:14:50.095Z,2.20
2022-12-22T12:18:02.042Z,1.40
2022-12-22T12:21:03.833Z,1.70
2022-12-22T12:23:53.821Z,1.85
2022-12-22T12:26:41.722Z,1.38
2022-12-22T12:29:22.200Z,1.77
2022-12-22T12:32:00.330Z,1.40
2022-12-22T12:34:31.637Z,1.20
2022-12-22T12:37:09.673Z,1.42
2022-12-22T12:39:39.479Z,1.38
2022-12-22T12:42:33.010Z,1.50
2022-12-22T12:45:03.302Z,1.17
2022-12-22T12:47:32.911Z,1.45
2022-12-22T12:50:19.588Z,1.30
2022-12-22T12:52:48.838Z,1.55
2022-12-22T12:55:31.638Z,1.20
2022-12-22T12:58:04.347Z,1.33
2022-12-22T13:00:34.792Z,1.55
2022-12-22T13:03:06.345Z,1.52
2022-12-22T13:05:51.941Z,1.27
2022-12-22T13:08:27.229Z,1.30
2022-12-22T13:10:54.388Z,1.52
2022-12-22T13:13:24.948Z,1.42
2022-12-22T13:16:04.593Z,1.38
2022-12-22T13:18:34.984Z,1.42
2022-12-22T13:27:03.297Z,1.50
2022-12-22T13:29:40.743Z,1.95
2022-12-22T13:32:33.554Z,1.17
2022-12-22T13:35:33.538Z,1.50
2022-12-22T13:38:03.782Z,1.52
2022-12-22T13:40:39.750Z,1.65
2022-12-22T13:43:15.490Z,1.30
2022-12-22T13:45:51.313Z,1.58
2022-12-22T13:48:21.295Z,1.20
2022-12-22T13:50:50.270Z,1.65
2022-12-22T13:54:08.613Z,1.85
2022-12-22T13:57:02.786Z,1.52
2022-12-22T13:59:42.361Z,1.52
2022-12-22T14:02:09.644Z,1.52
2022-12-22T14:04:39.758Z,1.48
2022-12-22T14:07:19.354Z,1.20
2022-12-22T14:09:50.973Z,1.80
2022-12-22T14:12:30.511Z,1.52
2022-12-22T14:15:01.335Z,1.40
2022-12-22T14:17:37.973Z,1.40
2022-12-22T14:20:28.430Z,1.70
2022-12-22T14:23:07.589Z,1.60
2022-12-22T14:25:38.268Z,1.48
2022-12-22T14:28:11.607Z,2.13
2022-12-22T14:30:43.569Z,1.60
2022-12-22T14:36:16.629Z,1.88
2022-12-22T14:38:47.716Z,2.10
2022-12-22T14:41:43.684Z,1.70
2022-12-22T14:44:23.221Z,1.70
2022-12-22T14:47:15.216Z,1.95
2022-12-22T14:49:50.743Z,1.90
2022-12-22T14:52:22.574Z,1.45
2022-12-22T14:54:52.204Z,1.52
2022-12-22T14:57:32.674Z,1.25
2022-12-22T15:00:09.192Z,1.35
2022-12-22T15:02:40.657Z,1.25
2022-12-22T15:05:17.011Z,1.10
2022-12-22T15:08:09.273Z,2.72
2022-12-22T15:10:44.906Z,1.83
2022-12-22T15:13:21.672Z,1.17
2022-12-22T15:15:51.291Z,1.20
2022-12-22T15:18:24.766Z,1.30
2022-12-22T15:20:52.397Z,1.27
2022-12-22T15:23:19.605Z,1.25
2022-12-22T15:25:47.014Z,1.40
2022-12-22T15:28:14.562Z,1.52
2022-12-22T15:30:42.805Z,1.60
2022-12-22T15:33:19.052Z,1.45
2022-12-22T15:35:46.803Z,1.40
2022-12-22T15:38:17.105Z,1.20
2022-12-22T15:40:44.778Z,1.30
2022-12-22T15:43:29.252Z,1.40
2022-12-22T15:45:59.962Z,1.48
2022-12-22T15:48:30.874Z,1.27
2022-12-22T15:50:58.796Z,1.20
2022-12-22T15:53:26.453Z,1.40
2022-12-22T15:55:55.679Z,1.50
2022-12-22T15:58:27.339Z,1.58
2022-12-22T16:00:54.859Z,1.45
2022-12-22T16:03:22.535Z,1.30
2022-12-22T16:05:49.966Z,1.77
2022-12-22T16:08:21.320Z,2.17
2022-12-22T16:10:49.735Z,1.40
2022-12-22T16:13:25.930Z,1.73
2022-12-22T16:15:53.729Z,1.50
2022-12-22T16:18:21.172Z,1.35
2022-12-22T16:20:50.402Z,1.67
2022-12-22T16:23:26.559Z,1.50
2022-12-22T16:26:01.295Z,1.80
2022-12-22T16:28:29.888Z,1.70
2022-12-22T16:30:57.596Z,1.60
2022-12-22T16:33:24.885Z,1.92
2022-12-22T16:35:52.077Z,1.45
2022-12-22T16:38:19.769Z,1.65
2022-12-22T16:40:50.979Z,1.85
2022-12-22T16:43:48.883Z,1.83
2022-12-22T16:46:19.743Z,1.83
2022-12-22T16:48:59.816Z,1.90
2022-12-22T16:51:34.674Z,1.88
2022-12-22T16:54:02.323Z,1.70
2022-12-22T16:56:31.802Z,1.75
2022-12-22T16:59:00.999Z,1.98
2022-12-22T17:01:38.475Z,2.17
2022-12-22T17:04:13.695Z,1.95
2022-12-22T17:06:41.841Z,2.50
2022-12-22T17:09:16.429Z,2.30
2022-12-22T17:11:46.261Z,2.70
2022-12-22T17:14:23.173Z,2.40
2022-12-22T17:16:50.729Z,2.80
2022-12-22T17:19:18.072Z,2.90
2022-12-22T17:21:45.936Z,2.75
2022-12-22T17:24:25.803Z,3.00
2022-12-22T17:26:55.297Z,3.22
2022-12-22T17:29:24.332Z,3.17
2022-12-22T17:31:56.548Z,3.72
2022-12-22T17:34:24.358Z,4.05
2022-12-22T17:36:51.987Z,3.70
2022-12-22T17:39:21.350Z,3.40
2022-12-22T17:41:56.262Z,2.85
2022-12-22T17:44:26.358Z,2.97
2022-12-22T17:46:53.893Z,2.63
2022-12-22T17:49:22.572Z,2.65
2022-12-22T17:51:50.359Z,2.45
2022-12-22T17:54:28.024Z,2.95
2022-12-22T17:57:02.660Z,2.20
2022-12-22T17:59:30.868Z,2.13
2022-12-22T18:01:59.016Z,2.03
2022-12-22T18:04:26.329Z,2.00
2022-12-22T18:06:54.005Z,1.92
2022-12-22T18:09:25.264Z,2.03
2022-12-22T18:11:53.290Z,2.03
2022-12-22T18:14:22.373Z,2.10
2022-12-22T18:16:49.758Z,2.90
2022-12-22T18:19:16.995Z,2.05
2022-12-22T18:21:44.698Z,2.17
2022-12-22T18:24:16.793Z,2.50
2022-12-22T18:26:44.205Z,3.05
2022-12-22T18:29:16.110Z,2.85
2022-12-22T18:34:12.688Z,2.90
2022-12-22T18:36:42.603Z,3.10
2022-12-22T18:39:19.079Z,3.15
2022-12-22T18:41:46.654Z,3.30
2022-12-22T18:44:18.038Z,3.78
2022-12-22T18:46:46.253Z,3.60
2022-12-22T18:49:14.008Z,2.97
2022-12-22T18:51:43.623Z,4.35
2022-12-22T18:54:33.424Z,3.58
2022-12-22T18:57:00.731Z,3.85
2022-12-22T18:59:28.650Z,4.07
2022-12-22T19:02:11.796Z,3.92
2022-12-22T19:04:39.156Z,4.10
2022-12-22T19:07:15.640Z,4.82
2022-12-22T19:09:43.028Z,5.07
2022-12-22T19:12:13.950Z,4.80
2022-12-22T19:14:47.702Z,5.25
2022-12-22T19:17:19.420Z,5.15
2022-12-22T19:19:46.767Z,5.75
2022-12-22T19:22:15.123Z,6.65
2022-12-22T19:24:45.004Z,6.97
2022-12-22T19:27:24.031Z,5.88
2022-12-22T19:29:59.013Z,6.28
2022-12-22T19:32:36.104Z,6.20
2022-12-22T19:35:03.751Z,6.72
2022-12-22T19:37:31.049Z,5.32
2022-12-22T19:39:58.353Z,5.22
2022-12-22T19:42:26.443Z,5.43
2022-12-22T19:44:53.711Z,5.88
2022-12-22T19:47:24.478Z,5.60
2022-12-22T19:49:51.761Z,5.05
2022-12-22T19:52:18.968Z,6.05
2022-12-22T19:54:46.191Z,5.60
2022-12-22T19:57:22.332Z,5.38
2022-12-22T19:59:51.375Z,4.93
2022-12-22T20:02:27.365Z,6.05
2022-12-22T20:04:55.429Z,4.57
2022-12-22T20:07:25.057Z,5.43
2022-12-22T20:09:52.934Z,4.68
2022-12-22T20:12:34.715Z,5.30
2022-12-22T20:15:07.409Z,5.30
2022-12-22T20:17:34.725Z,5.63
2022-12-22T20:20:01.952Z,5.38
2022-12-22T20:22:29.499Z,5.10
2022-12-22T20:24:56.775Z,5.40
2022-12-22T20:27:29.806Z,5.82
2022-12-22T20:29:57.175Z,6.57
2022-12-22T20:32:27.857Z,5.28
2022-12-22T20:34:55.894Z,11.18
2022-12-22T20:37:23.304Z,5.20
2022-12-22T20:39:50.534Z,5.32
2022-12-22T20:42:19.713Z,4.38
2022-12-22T20:45:02.349Z,4.70
2022-12-22T20:47:33.367Z,4.68
2022-12-22T20:50:00.880Z,4.85
2022-12-22T20:52:28.149Z,5.18
2022-12-22T20:54:55.409Z,4.80
2022-12-22T20:57:23.304Z,4.75
2022-12-22T20:59:55.972Z,4.97
2022-12-22T21:02:28.141Z,4.60
2022-12-22T21:04:56.502Z,4.97
2022-12-22T21:07:23.986Z,8.07
2022-12-22T21:09:51.239Z,5.07
2022-12-22T21:12:18.548Z,4.50
2022-12-22T21:14:45.907Z,5.32
2022-12-22T21:17:17.170Z,4.75
2022-12-22T21:19:44.771Z,4.07
2022-12-22T21:22:12.526Z,4.68
2022-12-22T21:24:41.728Z,4.32
2022-12-22T21:27:17.018Z,6.93
2022-12-22T21:29:44.474Z,5.28
2022-12-22T21:32:15.560Z,4.80
2022-12-22T21:34:42.930Z,5.00
2022-12-22T21:37:17.070Z,5.72
2022-12-22T21:39:45.011Z,5.82
2022-12-22T21:42:19.821Z,3.65
2022-12-22T21:44:47.671Z,4.00
2022-12-22T21:47:18.273Z,4.47
2022-12-22T21:49:45.617Z,4.72
2022-12-22T21:52:12.861Z,5.07
2022-12-22T21:54:40.378Z,5.03
2022-12-22T21:57:11.694Z,5.30
2022-12-22T21:59:38.920Z,8.35
2022-12-22T22:02:16.344Z,6.13
2022-12-22T22:04:48.393Z,5.53
2022-12-22T22:07:21.234Z,4.90
2022-12-22T22:09:48.503Z,7.75
2022-12-22T22:12:33.973Z,5.95
2022-12-22T22:15:01.979Z,4.50
2022-12-22T22:17:30.238Z,4.68
2022-12-22T22:19:57.427Z,4.75
2022-12-22T22:22:24.853Z,5.05
2022-12-22T22:24:52.060Z,4.68
2022-12-22T22:27:19.347Z,4.80
2022-12-22T22:29:46.583Z,5.75
2022-12-22T22:32:13.915Z,5.05
2022-12-22T22:34:41.174Z,4.93
2022-12-22T22:37:08.358Z,5.07
2022-12-22T22:39:35.617Z,4.60
2022-12-22T22:42:03.228Z,5.32
2022-12-22T22:44:30.478Z,5.22
2022-12-22T22:46:57.778Z,5.20
2022-12-22T22:49:28.503Z,5.03
2022-12-22T22:51:56.285Z,5.10
2022-12-22T22:54:23.532Z,4.80
2022-12-22T22:56:51.074Z,5.20
2022-12-22T22:59:19.024Z,5.05
2022-12-22T23:01:46.380Z,4.55
2022-12-22T23:04:13.866Z,4.97
2022-12-22T23:06:44.236Z,4.28
2022-12-22T23:09:11.513Z,4.72
2022-12-22T23:11:38.729Z,5.90
2022-12-22T23:14:06.051Z,5.38
2022-12-22T23:16:38.137Z,4.60
2022-12-22T23:19:06.469Z,4.65
2022-12-22T23:21:33.855Z,4.78
2022-12-22T23:24:01.387Z,5.20
2022-12-22T23:26:28.691Z,4.78
2022-12-22T23:29:02.669Z,5.72
2022-12-22T23:31:34.464Z,5.85
2022-12-22T23:34:01.947Z,4.88
2022-12-22T23:36:29.366Z,4.25
2022-12-22T23:38:57.275Z,4.78
2022-12-22T23:41:24.724Z,4.95
2022-12-22T23:43:53.620Z,6.03
2022-12-22T23:46:21.179Z,4.25
2022-12-22T23:48:53.470Z,4.20
2022-12-22T23:51:22.713Z,13.70
2022-12-22T23:53:50.035Z,5.30
2022-12-22T23:56:17.282Z,4.35
2022-12-22T23:58:47.036Z,4.75
